sensor_id;sensor_type;location;lat;lon;timestamp;temperature;humidity
5150;DHT22;2593;52.466;13.436;2023-02-21T00:00:04;9.00;99.90
5150;DHT22;2593;52.466;13.436;2023-02-21T00:02:48;9.00;99.90
5150;DHT22;2593;52.466;13.436;2023-02-21T00:05:33;8.90;99.90
5150;DHT22;2593;52.466;13.436;2023-02-21T00:08:17;8.90;99.90
5150;DHT22;2593;52.466;13.436;2023-02-21T00:11:01;8.90;99.90
5150;DHT22;2593;52.466;13.436;2023-02-21T00:13:45;8.90;99.90
5150;DHT22;2593;52.466;13.436;2023-02-21T00:16:30;8.90;99.90
5150;DHT22;2593;52.466;13.436;2023-02-21T00:19:15;8.90;99.90
5150;DHT22;2593;52.466;13.436;2023-02-21T00:21:59;8.90;99.90
5150;DHT22;2593;52.466;13.436;2023-02-21T00:24:43;8.90;99.90
5150;DHT22;2593;52.466;13.436;2023-02-21T00:27:27;8.90;99.90
5150;DHT22;2593;52.466;13.436;2023-02-21T00:30:13;8.90;99.90
5150;DHT22;2593;52.466;13.436;2023-02-21T00:32:57;8.90;99.90
5150;DHT22;2593;52.466;13.436;2023-02-21T00:35:42;8.90;99.90
5150;DHT22;2593;52.466;13.436;2023-02-21T00:38:26;8.90;99.90
5150;DHT22;2593;52.466;13.436;2023-02-21T00:41:10;8.80;99.90
5150;DHT22;2593;52.466;13.436;2023-02-21T00:43:54;8.80;99.90
5150;DHT22;2593;52.466;13.436;2023-02-21T00:46:39;8.80;99.90
5150;DHT22;2593;52.466;13.436;2023-02-21T00:49:23;8.80;99.90
5150;DHT22;2593;52.466;13.436;2023-02-21T00:52:07;8.80;99.90
5150;DHT22;2593;52.466;13.436;2023-02-21T00:54:51;8.80;99.90
5150;DHT22;2593;52.466;13.436;2023-02-21T00:57:36;8.80;99.90
5150;DHT22;2593;52.466;13.436;2023-02-21T01:00:22;8.80;99.90
5150;DHT22;2593;52.466;13.436;2023-02-21T01:03:08;8.80;99.90
5150;DHT22;2593;52.466;13.436;2023-02-21T01:05:53;8.80;99.90
5150;DHT22;2593;52.466;13.436;2023-02-21T01:08:44;8.80;99.90
5150;DHT22;2593;52.466;13.436;2023-02-21T01:11:29;8.80;99.90
5150;DHT22;2593;52.466;13.436;2023-02-21T01:14:14;8.80;99.90
5150;DHT22;2593;52.466;13.436;2023-02-21T01:16:58;8.80;99.90
5150;DHT22;2593;52.466;13.436;2023-02-21T01:19:42;8.80;99.90
5150;DHT22;2593;52.466;13.436;2023-02-21T01:22:27;8.80;99.90
5150;DHT22;2593;52.466;13.436;2023-02-21T01:25:12;8.80;99.90
5150;DHT22;2593;52.466;13.436;2023-02-21T01:27:56;8.80;99.90
5150;DHT22;2593;52.466;13.436;2023-02-21T01:30:40;8.80;99.90
5150;DHT22;2593;52.466;13.436;2023-02-21T01:33:24;8.90;99.90
5150;DHT22;2593;52.466;13.436;2023-02-21T01:36:09;8.90;99.90
5150;DHT22;2593;52.466;13.436;2023-02-21T01:38:53;8.90;99.90
5150;DHT22;2593;52.466;13.436;2023-02-21T01:41:38;8.90;99.90
5150;DHT22;2593;52.466;13.436;2023-02-21T01:44:38;8.90;99.90
5150;DHT22;2593;52.466;13.436;2023-02-21T01:47:23;8.90;99.90
5150;DHT22;2593;52.466;13.436;2023-02-21T01:50:14;8.90;99.90
5150;DHT22;2593;52.466;13.436;2023-02-21T01:53:01;8.90;99.90
5150;DHT22;2593;52.466;13.436;2023-02-21T01:55:46;8.90;99.90
5150;DHT22;2593;52.466;13.436;2023-02-21T01:58:31;8.90;99.90
5150;DHT22;2593;52.466;13.436;2023-02-21T02:01:24;8.90;99.90
5150;DHT22;2593;52.466;13.436;2023-02-21T02:04:10;9.00;99.90
5150;DHT22;2593;52.466;13.436;2023-02-21T02:06:54;9.00;99.90
5150;DHT22;2593;52.466;13.436;2023-02-21T02:09:38;9.00;99.90
5150;DHT22;2593;52.466;13.436;2023-02-21T02:12:32;9.00;99.90
5150;DHT22;2593;52.466;13.436;2023-02-21T02:23:48;9.10;99.90
5150;DHT22;2593;52.466;13.436;2023-02-21T02:26:43;9.10;99.90
5150;DHT22;2593;52.466;13.436;2023-02-21T02:35:20;9.20;99.90
5150;DHT22;2593;52.466;13.436;2023-02-21T02:37:54;9.20;99.90
5150;DHT22;2593;52.466;13.436;2023-02-21T02:48:48;9.30;99.90
5150;DHT22;2593;52.466;13.436;2023-02-21T02:51:13;9.40;99.90
5150;DHT22;2593;52.466;13.436;2023-02-21T02:53:45;9.30;99.90
5150;DHT22;2593;52.466;13.436;2023-02-21T02:56:15;9.30;99.90
5150;DHT22;2593;52.466;13.436;2023-02-21T03:04:24;9.30;99.90
5150;DHT22;2593;52.466;13.436;2023-02-21T03:15:45;9.30;99.90
5150;DHT22;2593;52.466;13.436;2023-02-21T03:20:57;9.30;99.90
5150;DHT22;2593;52.466;13.436;2023-02-21T03:23:29;9.40;99.90
5150;DHT22;2593;52.466;13.436;2023-02-21T03:25:59;9.40;99.90
5150;DHT22;2593;52.466;13.436;2023-02-21T03:28:27;9.40;99.90
5150;DHT22;2593;52.466;13.436;2023-02-21T03:30:55;9.40;99.90
5150;DHT22;2593;52.466;13.436;2023-02-21T03:33:22;9.40;99.90
5150;DHT22;2593;52.466;13.436;2023-02-21T03:35:48;9.50;99.90
5150;DHT22;2593;52.466;13.436;2023-02-21T03:38:14;9.50;99.90
5150;DHT22;2593;52.466;13.436;2023-02-21T03:40:39;9.50;99.90
5150;DHT22;2593;52.466;13.436;2023-02-21T03:43:06;9.50;99.90
5150;DHT22;2593;52.466;13.436;2023-02-21T03:45:32;9.60;99.90
5150;DHT22;2593;52.466;13.436;2023-02-21T03:47:58;9.60;99.90
5150;DHT22;2593;52.466;13.436;2023-02-21T03:50:24;9.60;99.90
5150;DHT22;2593;52.466;13.436;2023-02-21T03:52:50;9.70;99.90
5150;DHT22;2593;52.466;13.436;2023-02-21T03:55:16;9.60;99.90
5150;DHT22;2593;52.466;13.436;2023-02-21T03:57:41;9.60;99.90
5150;DHT22;2593;52.466;13.436;2023-02-21T04:00:08;9.70;99.90
5150;DHT22;2593;52.466;13.436;2023-02-21T04:02:34;9.70;99.90
5150;DHT22;2593;52.466;13.436;2023-02-21T04:05:00;9.70;99.90
5150;DHT22;2593;52.466;13.436;2023-02-21T04:07:25;9.70;99.90
5150;DHT22;2593;52.466;13.436;2023-02-21T04:09:51;9.70;99.90
5150;DHT22;2593;52.466;13.436;2023-02-21T04:12:17;9.60;99.90
5150;DHT22;2593;52.466;13.436;2023-02-21T04:14:43;9.60;99.90
5150;DHT22;2593;52.466;13.436;2023-02-21T04:17:09;9.60;99.90
5150;DHT22;2593;52.466;13.436;2023-02-21T04:19:34;9.70;99.90
5150;DHT22;2593;52.466;13.436;2023-02-21T04:22:00;9.70;99.90
5150;DHT22;2593;52.466;13.436;2023-02-21T04:24:26;9.70;99.90
5150;DHT22;2593;52.466;13.436;2023-02-21T04:26:51;9.70;99.90
5150;DHT22;2593;52.466;13.436;2023-02-21T04:29:17;9.70;99.90
5150;DHT22;2593;52.466;13.436;2023-02-21T04:31:42;9.70;99.90
5150;DHT22;2593;52.466;13.436;2023-02-21T04:34:08;9.70;99.90
5150;DHT22;2593;52.466;13.436;2023-02-21T04:36:34;9.70;99.90
5150;DHT22;2593;52.466;13.436;2023-02-21T04:39:02;9.80;99.90
5150;DHT22;2593;52.466;13.436;2023-02-21T04:41:27;9.80;99.90
5150;DHT22;2593;52.466;13.436;2023-02-21T04:43:53;9.80;99.90
5150;DHT22;2593;52.466;13.436;2023-02-21T04:46:19;9.80;99.90
5150;DHT22;2593;52.466;13.436;2023-02-21T04:48:46;9.80;99.90
5150;DHT22;2593;52.466;13.436;2023-02-21T04:51:13;9.80;99.90
5150;DHT22;2593;52.466;13.436;2023-02-21T04:53:39;9.70;99.90
5150;DHT22;2593;52.466;13.436;2023-02-21T04:56:05;9.70;99.90
5150;DHT22;2593;52.466;13.436;2023-02-21T04:58:31;9.60;99.90
5150;DHT22;2593;52.466;13.436;2023-02-21T05:00:56;9.50;99.90
5150;DHT22;2593;52.466;13.436;2023-02-21T05:03:22;9.60;99.90
5150;DHT22;2593;52.466;13.436;2023-02-21T05:05:49;9.50;99.90
5150;DHT22;2593;52.466;13.436;2023-02-21T05:08:15;9.50;99.90
5150;DHT22;2593;52.466;13.436;2023-02-21T05:10:40;9.40;99.90
5150;DHT22;2593;52.466;13.436;2023-02-21T05:13:06;9.40;99.90
5150;DHT22;2593;52.466;13.436;2023-02-21T05:15:32;9.40;99.90
5150;DHT22;2593;52.466;13.436;2023-02-21T05:17:57;9.40;99.90
5150;DHT22;2593;52.466;13.436;2023-02-21T05:20:23;9.30;99.90
5150;DHT22;2593;52.466;13.436;2023-02-21T05:22:48;9.40;99.90
5150;DHT22;2593;52.466;13.436;2023-02-21T05:25:16;9.40;99.90
5150;DHT22;2593;52.466;13.436;2023-02-21T05:27:42;9.40;99.90
5150;DHT22;2593;52.466;13.436;2023-02-21T05:30:08;9.40;99.90
5150;DHT22;2593;52.466;13.436;2023-02-21T05:32:34;9.40;99.90
5150;DHT22;2593;52.466;13.436;2023-02-21T05:35:00;9.40;99.90
5150;DHT22;2593;52.466;13.436;2023-02-21T05:37:25;9.40;99.90
5150;DHT22;2593;52.466;13.436;2023-02-21T05:39:51;9.40;99.90
5150;DHT22;2593;52.466;13.436;2023-02-21T05:42:17;9.30;99.90
5150;DHT22;2593;52.466;13.436;2023-02-21T05:44:44;9.30;99.90
5150;DHT22;2593;52.466;13.436;2023-02-21T05:47:10;9.30;99.90
5150;DHT22;2593;52.466;13.436;2023-02-21T05:49:36;9.30;99.90
5150;DHT22;2593;52.466;13.436;2023-02-21T05:52:02;9.20;99.90
5150;DHT22;2593;52.466;13.436;2023-02-21T05:54:29;9.10;99.90
5150;DHT22;2593;52.466;13.436;2023-02-21T05:56:55;9.20;99.90
5150;DHT22;2593;52.466;13.436;2023-02-21T05:59:20;9.20;99.90
5150;DHT22;2593;52.466;13.436;2023-02-21T06:01:47;9.10;99.90
5150;DHT22;2593;52.466;13.436;2023-02-21T06:04:13;9.10;99.90
5150;DHT22;2593;52.466;13.436;2023-02-21T06:06:39;9.10;99.90
5150;DHT22;2593;52.466;13.436;2023-02-21T06:09:05;9.10;99.90
5150;DHT22;2593;52.466;13.436;2023-02-21T06:11:32;9.10;99.90
5150;DHT22;2593;52.466;13.436;2023-02-21T06:14:00;9.10;99.90
5150;DHT22;2593;52.466;13.436;2023-02-21T06:16:37;9.00;99.90
5150;DHT22;2593;52.466;13.436;2023-02-21T06:19:04;9.00;99.90
5150;DHT22;2593;52.466;13.436;2023-02-21T06:21:30;9.10;99.90
5150;DHT22;2593;52.466;13.436;2023-02-21T06:23:56;9.10;99.90
5150;DHT22;2593;52.466;13.436;2023-02-21T06:26:22;9.10;99.90
5150;DHT22;2593;52.466;13.436;2023-02-21T06:28:48;9.00;99.90
5150;DHT22;2593;52.466;13.436;2023-02-21T06:31:15;9.00;99.90
5150;DHT22;2593;52.466;13.436;2023-02-21T06:33:40;9.00;99.90
5150;DHT22;2593;52.466;13.436;2023-02-21T06:36:09;9.10;99.90
5150;DHT22;2593;52.466;13.436;2023-02-21T06:38:36;9.10;99.90
5150;DHT22;2593;52.466;13.436;2023-02-21T06:41:08;9.00;99.90
5150;DHT22;2593;52.466;13.436;2023-02-21T06:43:34;9.00;99.90
5150;DHT22;2593;52.466;13.436;2023-02-21T06:46:01;9.00;99.90
5150;DHT22;2593;52.466;13.436;2023-02-21T06:48:27;9.00;99.90
5150;DHT22;2593;52.466;13.436;2023-02-21T06:50:53;9.00;99.90
5150;DHT22;2593;52.466;13.436;2023-02-21T06:53:18;9.00;99.90
5150;DHT22;2593;52.466;13.436;2023-02-21T06:55:44;9.00;99.90
5150;DHT22;2593;52.466;13.436;2023-02-21T06:58:10;9.00;99.90
5150;DHT22;2593;52.466;13.436;2023-02-21T07:00:36;9.00;99.90
5150;DHT22;2593;52.466;13.436;2023-02-21T07:03:02;9.10;99.90
5150;DHT22;2593;52.466;13.436;2023-02-21T07:05:27;9.00;99.90
5150;DHT22;2593;52.466;13.436;2023-02-21T07:07:53;9.00;99.90
5150;DHT22;2593;52.466;13.436;2023-02-21T07:10:19;9.00;99.90
5150;DHT22;2593;52.466;13.436;2023-02-21T07:12:45;9.00;99.90
5150;DHT22;2593;52.466;13.436;2023-02-21T07:15:10;9.00;99.90
5150;DHT22;2593;52.466;13.436;2023-02-21T07:17:36;9.00;99.90
5150;DHT22;2593;52.466;13.436;2023-02-21T07:20:02;9.10;99.90
5150;DHT22;2593;52.466;13.436;2023-02-21T07:22:29;9.10;99.90
5150;DHT22;2593;52.466;13.436;2023-02-21T07:24:55;9.10;99.90
5150;DHT22;2593;52.466;13.436;2023-02-21T07:27:22;9.10;99.90
5150;DHT22;2593;52.466;13.436;2023-02-21T07:29:48;9.10;99.90
5150;DHT22;2593;52.466;13.436;2023-02-21T07:32:15;9.10;99.90
5150;DHT22;2593;52.466;13.436;2023-02-21T07:34:41;9.10;99.90
5150;DHT22;2593;52.466;13.436;2023-02-21T07:37:07;9.10;99.90
5150;DHT22;2593;52.466;13.436;2023-02-21T07:39:33;9.10;99.90
5150;DHT22;2593;52.466;13.436;2023-02-21T07:41:59;9.20;99.90
5150;DHT22;2593;52.466;13.436;2023-02-21T07:44:25;9.20;99.90
5150;DHT22;2593;52.466;13.436;2023-02-21T07:46:50;9.20;99.90
5150;DHT22;2593;52.466;13.436;2023-02-21T07:49:16;9.20;99.90
5150;DHT22;2593;52.466;13.436;2023-02-21T07:51:41;9.10;99.90
5150;DHT22;2593;52.466;13.436;2023-02-21T07:54:07;9.20;99.90
5150;DHT22;2593;52.466;13.436;2023-02-21T07:56:33;9.20;99.90
5150;DHT22;2593;52.466;13.436;2023-02-21T07:58:59;9.20;99.90
5150;DHT22;2593;52.466;13.436;2023-02-21T08:01:25;9.30;99.90
5150;DHT22;2593;52.466;13.436;2023-02-21T08:03:51;9.30;99.90
5150;DHT22;2593;52.466;13.436;2023-02-21T08:06:17;9.40;99.90
5150;DHT22;2593;52.466;13.436;2023-02-21T08:08:44;9.40;99.90
5150;DHT22;2593;52.466;13.436;2023-02-21T08:11:10;9.40;99.90
5150;DHT22;2593;52.466;13.436;2023-02-21T08:13:35;9.40;99.90
5150;DHT22;2593;52.466;13.436;2023-02-21T08:16:02;9.40;99.90
5150;DHT22;2593;52.466;13.436;2023-02-21T08:18:27;9.40;99.90
5150;DHT22;2593;52.466;13.436;2023-02-21T08:20:54;9.50;99.90
5150;DHT22;2593;52.466;13.436;2023-02-21T08:23:21;9.50;99.90
5150;DHT22;2593;52.466;13.436;2023-02-21T08:25:47;9.60;99.90
5150;DHT22;2593;52.466;13.436;2023-02-21T08:28:13;9.60;99.90
5150;DHT22;2593;52.466;13.436;2023-02-21T08:30:39;9.70;99.90
5150;DHT22;2593;52.466;13.436;2023-02-21T08:33:05;9.80;99.90
5150;DHT22;2593;52.466;13.436;2023-02-21T08:35:31;9.90;99.90
5150;DHT22;2593;52.466;13.436;2023-02-21T08:37:56;9.90;99.90
5150;DHT22;2593;52.466;13.436;2023-02-21T08:40:27;9.90;99.90
5150;DHT22;2593;52.466;13.436;2023-02-21T08:42:53;10.00;99.90
5150;DHT22;2593;52.466;13.436;2023-02-21T08:45:20;10.10;99.90
5150;DHT22;2593;52.466;13.436;2023-02-21T08:47:46;10.20;99.90
5150;DHT22;2593;52.466;13.436;2023-02-21T08:50:12;10.30;99.90
5150;DHT22;2593;52.466;13.436;2023-02-21T08:52:38;10.40;99.90
5150;DHT22;2593;52.466;13.436;2023-02-21T08:55:05;10.40;99.90
5150;DHT22;2593;52.466;13.436;2023-02-21T08:57:31;10.50;99.90
5150;DHT22;2593;52.466;13.436;2023-02-21T08:59:59;10.60;99.90
5150;DHT22;2593;52.466;13.436;2023-02-21T09:02:25;10.70;99.90
5150;DHT22;2593;52.466;13.436;2023-02-21T09:04:51;10.90;99.90
5150;DHT22;2593;52.466;13.436;2023-02-21T09:07:18;11.10;99.90
5150;DHT22;2593;52.466;13.436;2023-02-21T09:09:44;11.30;99.90
5150;DHT22;2593;52.466;13.436;2023-02-21T09:12:10;11.40;99.90
5150;DHT22;2593;52.466;13.436;2023-02-21T09:14:38;11.50;99.90
5150;DHT22;2593;52.466;13.436;2023-02-21T09:17:05;11.30;99.90
5150;DHT22;2593;52.466;13.436;2023-02-21T09:19:31;11.10;1.00
5150;DHT22;2593;52.466;13.436;2023-02-21T09:21:56;10.90;99.90
5150;DHT22;2593;52.466;13.436;2023-02-21T09:24:24;10.80;95.60
5150;DHT22;2593;52.466;13.436;2023-02-21T09:26:59;10.70;1.00
5150;DHT22;2593;52.466;13.436;2023-02-21T09:29:31;10.70;1.00
5150;DHT22;2593;52.466;13.436;2023-02-21T09:31:57;10.70;1.00
5150;DHT22;2593;52.466;13.436;2023-02-21T09:34:22;10.70;1.00
5150;DHT22;2593;52.466;13.436;2023-02-21T09:36:48;10.60;72.00
5150;DHT22;2593;52.466;13.436;2023-02-21T09:39:16;10.80;1.00
5150;DHT22;2593;52.466;13.436;2023-02-21T09:41:42;10.70;16.30
5150;DHT22;2593;52.466;13.436;2023-02-21T09:44:22;10.60;8.70
5150;DHT22;2593;52.466;13.436;2023-02-21T09:46:56;10.60;1.00
5150;DHT22;2593;52.466;13.436;2023-02-21T09:49:29;10.50;1.00
5150;DHT22;2593;52.466;13.436;2023-02-21T09:51:57;10.50;1.00
5150;DHT22;2593;52.466;13.436;2023-02-21T09:54:36;10.60;99.90
5150;DHT22;2593;52.466;13.436;2023-02-21T09:57:05;10.70;35.10
5150;DHT22;2593;52.466;13.436;2023-02-21T09:59:34;10.60;38.60
5150;DHT22;2593;52.466;13.436;2023-02-21T10:04:58;10.70;99.90
5150;DHT22;2593;52.466;13.436;2023-02-21T10:07:44;10.80;1.00
5150;DHT22;2593;52.466;13.436;2023-02-21T10:10:23;10.70;1.00
5150;DHT22;2593;52.466;13.436;2023-02-21T10:15:38;10.90;99.90
5150;DHT22;2593;52.466;13.436;2023-02-21T10:18:18;11.00;99.90
5150;DHT22;2593;52.466;13.436;2023-02-21T10:21:00;11.20;99.90
5150;DHT22;2593;52.466;13.436;2023-02-21T10:23:39;11.80;1.00
5150;DHT22;2593;52.466;13.436;2023-02-21T10:26:12;12.40;99.90
5150;DHT22;2593;52.466;13.436;2023-02-21T10:28:39;12.70;99.90
5150;DHT22;2593;52.466;13.436;2023-02-21T10:31:38;12.90;99.90
5150;DHT22;2593;52.466;13.436;2023-02-21T10:34:05;13.30;99.90
5150;DHT22;2593;52.466;13.436;2023-02-21T10:36:32;13.60;99.90
5150;DHT22;2593;52.466;13.436;2023-02-21T10:41:36;13.10;99.90
5150;DHT22;2593;52.466;13.436;2023-02-21T10:44:09;12.90;99.90
5150;DHT22;2593;52.466;13.436;2023-02-21T10:46:42;12.50;99.90
5150;DHT22;2593;52.466;13.436;2023-02-21T10:51:43;12.20;99.90
5150;DHT22;2593;52.466;13.436;2023-02-21T10:54:20;12.10;99.90
5150;DHT22;2593;52.466;13.436;2023-02-21T10:56:47;11.90;99.90
5150;DHT22;2593;52.466;13.436;2023-02-21T10:59:29;11.70;99.90
5150;DHT22;2593;52.466;13.436;2023-02-21T11:01:57;11.70;99.90
5150;DHT22;2593;52.466;13.436;2023-02-21T11:04:26;11.60;99.90
5150;DHT22;2593;52.466;13.436;2023-02-21T11:14:30;11.80;99.90
5150;DHT22;2593;52.466;13.436;2023-02-21T11:17:14;11.90;99.90
5150;DHT22;2593;52.466;13.436;2023-02-21T11:19:57;12.00;99.90
5150;DHT22;2593;52.466;13.436;2023-02-21T11:22:37;12.00;99.90
5150;DHT22;2593;52.466;13.436;2023-02-21T11:27:58;12.00;99.90
5150;DHT22;2593;52.466;13.436;2023-02-21T11:30:25;12.10;99.90
5150;DHT22;2593;52.466;13.436;2023-02-21T11:32:54;12.00;99.90
5150;DHT22;2593;52.466;13.436;2023-02-21T11:35:29;11.80;99.90
5150;DHT22;2593;52.466;13.436;2023-02-21T11:38:00;11.70;99.90
5150;DHT22;2593;52.466;13.436;2023-02-21T11:40:43;11.80;99.90
5150;DHT22;2593;52.466;13.436;2023-02-21T11:49:14;11.70;99.90
5150;DHT22;2593;52.466;13.436;2023-02-21T11:51:53;11.80;99.90
5150;DHT22;2593;52.466;13.436;2023-02-21T11:54:25;12.00;99.90
5150;DHT22;2593;52.466;13.436;2023-02-21T11:56:58;12.00;99.90
5150;DHT22;2593;52.466;13.436;2023-02-21T11:59:51;12.10;99.90
5150;DHT22;2593;52.466;13.436;2023-02-21T12:13:27;11.90;83.40
5150;DHT22;2593;52.466;13.436;2023-02-21T12:18:54;11.70;97.50
5150;DHT22;2593;52.466;13.436;2023-02-21T12:24:27;11.60;99.90
5150;DHT22;2593;52.466;13.436;2023-02-21T12:27:01;11.40;99.90
5150;DHT22;2593;52.466;13.436;2023-02-21T12:29:46;11.40;99.90
5150;DHT22;2593;52.466;13.436;2023-02-21T12:38:17;11.30;99.90
5150;DHT22;2593;52.466;13.436;2023-02-21T12:41:01;11.30;99.90
5150;DHT22;2593;52.466;13.436;2023-02-21T12:46:53;11.40;99.90
5150;DHT22;2593;52.466;13.436;2023-02-21T12:49:43;11.40;99.90
5150;DHT22;2593;52.466;13.436;2023-02-21T12:54:46;11.30;99.90
5150;DHT22;2593;52.466;13.436;2023-02-21T12:57:16;11.30;99.90
5150;DHT22;2593;52.466;13.436;2023-02-21T13:05:22;11.40;94.60
5150;DHT22;2593;52.466;13.436;2023-02-21T13:07:59;11.40;87.20
5150;DHT22;2593;52.466;13.436;2023-02-21T13:10:38;11.40;81.10
5150;DHT22;2593;52.466;13.436;2023-02-21T13:13:21;11.40;69.80
5150;DHT22;2593;52.466;13.436;2023-02-21T13:15:48;11.30;76.30
5150;DHT22;2593;52.466;13.436;2023-02-21T13:18:26;11.30;83.00
5150;DHT22;2593;52.466;13.436;2023-02-21T13:21:03;11.30;90.90
5150;DHT22;2593;52.466;13.436;2023-02-21T13:23:35;11.20;81.80
5150;DHT22;2593;52.466;13.436;2023-02-21T13:28:58;11.20;79.90
5150;DHT22;2593;52.466;13.436;2023-02-21T13:31:26;11.30;92.70
5150;DHT22;2593;52.466;13.436;2023-02-21T13:33:58;11.30;90.40
5150;DHT22;2593;52.466;13.436;2023-02-21T13:36:39;11.40;99.80
5150;DHT22;2593;52.466;13.436;2023-02-21T13:39:21;11.50;97.90
5150;DHT22;2593;52.466;13.436;2023-02-21T13:42:05;11.60;73.50
5150;DHT22;2593;52.466;13.436;2023-02-21T13:44:39;11.50;51.40
5150;DHT22;2593;52.466;13.436;2023-02-21T13:47:13;11.50;49.70
5150;DHT22;2593;52.466;13.436;2023-02-21T13:57:36;11.60;53.00
5150;DHT22;2593;52.466;13.436;2023-02-21T14:10:53;11.50;56.10
5150;DHT22;2593;52.466;13.436;2023-02-21T14:13:49;11.40;58.60
5150;DHT22;2593;52.466;13.436;2023-02-21T14:16:17;11.40;74.10
5150;DHT22;2593;52.466;13.436;2023-02-21T14:18:57;11.30;89.00
5150;DHT22;2593;52.466;13.436;2023-02-21T14:23:58;11.40;98.60
5150;DHT22;2593;52.466;13.436;2023-02-21T15:03:23;10.90;83.70
5150;DHT22;2593;52.466;13.436;2023-02-21T15:06:04;10.90;80.90
5150;DHT22;2593;52.466;13.436;2023-02-21T15:08:46;10.90;69.80
5150;DHT22;2593;52.466;13.436;2023-02-21T15:11:26;10.90;69.70
5150;DHT22;2593;52.466;13.436;2023-02-21T15:16:43;10.80;76.40
5150;DHT22;2593;52.466;13.436;2023-02-21T15:19:32;10.80;78.10
5150;DHT22;2593;52.466;13.436;2023-02-21T15:22:21;10.80;81.30
5150;DHT22;2593;52.466;13.436;2023-02-21T15:30:26;10.90;66.20
5150;DHT22;2593;52.466;13.436;2023-02-21T15:33:05;10.80;63.40
5150;DHT22;2593;52.466;13.436;2023-02-21T15:35:38;10.70;70.50
5150;DHT22;2593;52.466;13.436;2023-02-21T15:38:14;10.70;79.20
5150;DHT22;2593;52.466;13.436;2023-02-21T15:40:42;10.80;70.10
5150;DHT22;2593;52.466;13.436;2023-02-21T15:43:25;10.60;72.80
5150;DHT22;2593;52.466;13.436;2023-02-21T15:45:53;10.60;75.30
5150;DHT22;2593;52.466;13.436;2023-02-21T15:48:20;10.70;65.80
5150;DHT22;2593;52.466;13.436;2023-02-21T15:50:47;10.60;66.60
5150;DHT22;2593;52.466;13.436;2023-02-21T15:53:19;10.50;70.30
5150;DHT22;2593;52.466;13.436;2023-02-21T15:55:47;10.50;75.40
5150;DHT22;2593;52.466;13.436;2023-02-21T15:58:20;10.40;82.70
5150;DHT22;2593;52.466;13.436;2023-02-21T16:01:06;10.40;81.80
5150;DHT22;2593;52.466;13.436;2023-02-21T16:06:13;10.30;92.60
5150;DHT22;2593;52.466;13.436;2023-02-21T16:11:16;10.40;90.60
5150;DHT22;2593;52.466;13.436;2023-02-21T16:13:42;10.30;92.20
5150;DHT22;2593;52.466;13.436;2023-02-21T16:16:08;10.20;97.80
5150;DHT22;2593;52.466;13.436;2023-02-21T16:18:34;10.20;97.50
5150;DHT22;2593;52.466;13.436;2023-02-21T16:21:02;10.20;97.30
5150;DHT22;2593;52.466;13.436;2023-02-21T16:23:39;10.20;95.60
5150;DHT22;2593;52.466;13.436;2023-02-21T16:28:35;10.20;95.50
5150;DHT22;2593;52.466;13.436;2023-02-21T16:31:03;10.10;99.40
5150;DHT22;2593;52.466;13.436;2023-02-21T16:33:31;10.00;99.90
5150;DHT22;2593;52.466;13.436;2023-02-21T16:35:58;10.00;99.90
5150;DHT22;2593;52.466;13.436;2023-02-21T16:38:25;9.90;99.90
5150;DHT22;2593;52.466;13.436;2023-02-21T16:40:52;9.90;99.90
5150;DHT22;2593;52.466;13.436;2023-02-21T16:43:23;9.80;99.90
5150;DHT22;2593;52.466;13.436;2023-02-21T16:45:51;9.70;99.90
5150;DHT22;2593;52.466;13.436;2023-02-21T16:48:21;9.70;99.90
5150;DHT22;2593;52.466;13.436;2023-02-21T16:50:49;9.70;99.90
5150;DHT22;2593;52.466;13.436;2023-02-21T16:53:15;9.70;99.90
5150;DHT22;2593;52.466;13.436;2023-02-21T16:55:41;9.70;99.90
5150;DHT22;2593;52.466;13.436;2023-02-21T16:58:26;9.80;99.90
5150;DHT22;2593;52.466;13.436;2023-02-21T17:00:57;9.70;99.90
5150;DHT22;2593;52.466;13.436;2023-02-21T17:03:24;9.70;99.90
5150;DHT22;2593;52.466;13.436;2023-02-21T17:05:51;9.70;99.90
5150;DHT22;2593;52.466;13.436;2023-02-21T17:08:17;9.80;99.90
5150;DHT22;2593;52.466;13.436;2023-02-21T17:10:43;9.60;99.90
5150;DHT22;2593;52.466;13.436;2023-02-21T17:13:09;9.60;99.90
5150;DHT22;2593;52.466;13.436;2023-02-21T17:15:34;9.50;99.90
5150;DHT22;2593;52.466;13.436;2023-02-21T17:18:00;9.50;99.90
5150;DHT22;2593;52.466;13.436;2023-02-21T17:20:27;9.50;99.90
5150;DHT22;2593;52.466;13.436;2023-02-21T17:22:53;9.40;99.90
5150;DHT22;2593;52.466;13.436;2023-02-21T17:25:20;9.50;99.90
5150;DHT22;2593;52.466;13.436;2023-02-21T17:27:47;9.50;99.90
5150;DHT22;2593;52.466;13.436;2023-02-21T17:30:14;9.40;99.90
5150;DHT22;2593;52.466;13.436;2023-02-21T17:32:40;9.50;99.90
5150;DHT22;2593;52.466;13.436;2023-02-21T17:35:06;9.50;99.90
5150;DHT22;2593;52.466;13.436;2023-02-21T17:37:32;9.50;99.90
5150;DHT22;2593;52.466;13.436;2023-02-21T17:39:57;9.50;99.90
5150;DHT22;2593;52.466;13.436;2023-02-21T17:42:24;9.50;99.90
5150;DHT22;2593;52.466;13.436;2023-02-21T17:44:50;9.50;99.90
5150;DHT22;2593;52.466;13.436;2023-02-21T17:47:21;9.60;99.90
5150;DHT22;2593;52.466;13.436;2023-02-21T17:49:48;9.60;99.90
5150;DHT22;2593;52.466;13.436;2023-02-21T17:52:14;9.60;99.90
5150;DHT22;2593;52.466;13.436;2023-02-21T17:54:40;9.60;99.90
5150;DHT22;2593;52.466;13.436;2023-02-21T17:57:06;9.60;99.90
5150;DHT22;2593;52.466;13.436;2023-02-21T17:59:33;9.60;99.90
5150;DHT22;2593;52.466;13.436;2023-02-21T18:01:59;9.60;99.90
5150;DHT22;2593;52.466;13.436;2023-02-21T18:04:25;9.60;99.90
5150;DHT22;2593;52.466;13.436;2023-02-21T18:06:51;9.60;99.90
5150;DHT22;2593;52.466;13.436;2023-02-21T18:09:17;9.60;99.90
5150;DHT22;2593;52.466;13.436;2023-02-21T18:11:50;9.60;99.90
5150;DHT22;2593;52.466;13.436;2023-02-21T18:14:16;9.60;99.90
5150;DHT22;2593;52.466;13.436;2023-02-21T18:16:42;9.60;99.90
5150;DHT22;2593;52.466;13.436;2023-02-21T18:19:08;9.60;99.90
5150;DHT22;2593;52.466;13.436;2023-02-21T18:21:34;9.70;99.90
5150;DHT22;2593;52.466;13.436;2023-02-21T18:24:01;9.60;99.90
5150;DHT22;2593;52.466;13.436;2023-02-21T18:26:27;9.60;99.90
5150;DHT22;2593;52.466;13.436;2023-02-21T18:28:52;9.70;99.90
5150;DHT22;2593;52.466;13.436;2023-02-21T18:31:18;9.80;99.90
5150;DHT22;2593;52.466;13.436;2023-02-21T18:33:44;9.70;99.90
5150;DHT22;2593;52.466;13.436;2023-02-21T18:36:10;9.70;99.90
5150;DHT22;2593;52.466;13.436;2023-02-21T18:38:40;9.60;99.90
5150;DHT22;2593;52.466;13.436;2023-02-21T18:41:11;9.50;99.90
5150;DHT22;2593;52.466;13.436;2023-02-21T18:43:37;9.50;99.90
5150;DHT22;2593;52.466;13.436;2023-02-21T18:46:08;9.60;99.90
5150;DHT22;2593;52.466;13.436;2023-02-21T18:48:34;9.60;99.90
5150;DHT22;2593;52.466;13.436;2023-02-21T18:51:00;9.60;99.90
5150;DHT22;2593;52.466;13.436;2023-02-21T18:53:26;9.60;99.90
5150;DHT22;2593;52.466;13.436;2023-02-21T18:55:52;9.60;99.90
5150;DHT22;2593;52.466;13.436;2023-02-21T18:58:17;9.60;99.90
5150;DHT22;2593;52.466;13.436;2023-02-21T19:00:43;9.60;99.90
5150;DHT22;2593;52.466;13.436;2023-02-21T19:03:10;9.50;99.90
5150;DHT22;2593;52.466;13.436;2023-02-21T19:05:37;9.50;99.90
5150;DHT22;2593;52.466;13.436;2023-02-21T19:08:03;9.60;99.90
5150;DHT22;2593;52.466;13.436;2023-02-21T19:10:30;9.60;99.90
5150;DHT22;2593;52.466;13.436;2023-02-21T19:12:56;9.60;99.90
5150;DHT22;2593;52.466;13.436;2023-02-21T19:15:24;9.50;99.90
5150;DHT22;2593;52.466;13.436;2023-02-21T19:17:50;9.50;99.90
5150;DHT22;2593;52.466;13.436;2023-02-21T19:20:16;9.60;99.90